sensor_id;sensor_type;location;lat;lon;timestamp;pressure;altitude;pressure_sealevel;temperature;humidity
33795;BME280;51430;52.242;21.118;2023-04-25T00:01:47;99034.20;;;14.68;70.50
33795;BME280;51430;52.242;21.118;2023-04-25T00:04:13;99031.13;;;14.66;70.62
33795;BME280;51430;52.242;21.118;2023-04-25T00:06:40;99030.80;;;14.61;70.87
33795;BME280;51430;52.242;21.118;2023-04-25T00:09:06;99027.39;;;14.59;71.19
33795;BME280;51430;52.242;21.118;2023-04-25T00:11:37;99024.73;;;14.56;71.40
33795;BME280;51430;52.242;21.118;2023-04-25T00:14:04;99024.25;;;14.54;71.38
33795;BME280;51430;52.242;21.118;2023-04-25T00:16:30;99028.06;;;14.49;71.50
33795;BME280;51430;52.242;21.118;2023-04-25T00:19:02;99027.85;;;14.47;71.83
33795;BME280;51430;52.242;21.118;2023-04-25T00:21:30;99026.42;;;14.41;72.47
33795;BME280;51430;52.242;21.118;2023-04-25T00:23:57;99026.17;;;14.34;72.92
33795;BME280;51430;52.242;21.118;2023-04-25T00:26:26;99026.04;;;14.35;72.92
33795;BME280;51430;52.242;21.118;2023-04-25T00:28:53;99030.23;;;14.37;73.00
33795;BME280;51430;52.242;21.118;2023-04-25T00:31:19;99030.52;;;14.37;72.99
33795;BME280;51430;52.242;21.118;2023-04-25T00:33:49;99037.36;;;14.37;72.86
33795;BME280;51430;52.242;21.118;2023-04-25T00:36:16;99033.33;;;14.34;73.37
33795;BME280;51430;52.242;21.118;2023-04-25T00:38:43;99030.90;;;14.32;73.47
33795;BME280;51430;52.242;21.118;2023-04-25T00:41:10;99031.73;;;14.33;73.59
33795;BME280;51430;52.242;21.118;2023-04-25T00:43:37;99032.67;;;14.35;73.50
33795;BME280;51430;52.242;21.118;2023-04-25T00:46:06;99031.20;;;14.33;72.97
33795;BME280;51430;52.242;21.118;2023-04-25T00:48:32;99030.40;;;14.18;73.01
33795;BME280;51430;52.242;21.118;2023-04-25T00:50:59;99034.09;;;14.09;73.25
33795;BME280;51430;52.242;21.118;2023-04-25T00:53:27;99036.75;;;14.02;73.53
33795;BME280;51430;52.242;21.118;2023-04-25T00:55:54;99035.48;;;13.93;73.79
33795;BME280;51430;52.242;21.118;2023-04-25T00:58:21;99031.83;;;13.85;74.15
33795;BME280;51430;52.242;21.118;2023-04-25T01:00:49;99029.39;;;13.79;74.38
33795;BME280;51430;52.242;21.118;2023-04-25T01:03:18;99030.39;;;13.71;74.64
33795;BME280;51430;52.242;21.118;2023-04-25T01:05:47;99026.25;;;13.55;75.25
33795;BME280;51430;52.242;21.118;2023-04-25T01:08:14;99031.67;;;13.47;75.73
33795;BME280;51430;52.242;21.118;2023-04-25T01:10:41;99028.27;;;13.47;75.74
33795;BME280;51430;52.242;21.118;2023-04-25T01:13:07;99030.61;;;13.31;76.58
33795;BME280;51430;52.242;21.118;2023-04-25T01:15:34;99033.08;;;13.25;76.91
33795;BME280;51430;52.242;21.118;2023-04-25T01:18:03;99030.09;;;13.18;76.99
33795;BME280;51430;52.242;21.118;2023-04-25T01:20:32;99029.30;;;13.13;77.33
33795;BME280;51430;52.242;21.118;2023-04-25T01:22:58;99029.42;;;13.07;77.74
33795;BME280;51430;52.242;21.118;2023-04-25T01:25:25;99026.61;;;13.02;77.88
33795;BME280;51430;52.242;21.118;2023-04-25T01:27:52;99024.39;;;12.93;78.32
33795;BME280;51430;52.242;21.118;2023-04-25T01:30:19;99025.05;;;12.92;78.68
33795;BME280;51430;52.242;21.118;2023-04-25T01:32:47;99024.22;;;12.85;79.31
33795;BME280;51430;52.242;21.118;2023-04-25T01:35:14;99022.85;;;12.90;78.92
33795;BME280;51430;52.242;21.118;2023-04-25T01:37:43;99022.69;;;12.90;78.98
33795;BME280;51430;52.242;21.118;2023-04-25T01:40:11;99020.59;;;12.91;79.10
33795;BME280;51430;52.242;21.118;2023-04-25T01:42:40;99024.00;;;12.94;79.02
33795;BME280;51430;52.242;21.118;2023-04-25T01:45:08;99030.14;;;12.94;79.67
33795;BME280;51430;52.242;21.118;2023-04-25T01:47:35;99030.41;;;12.97;79.67
33795;BME280;51430;52.242;21.118;2023-04-25T01:50:02;99032.41;;;13.02;79.22
33795;BME280;51430;52.242;21.118;2023-04-25T01:52:32;99031.85;;;13.04;78.85
33795;BME280;51430;52.242;21.118;2023-04-25T01:55:01;99026.34;;;13.00;78.68
33795;BME280;51430;52.242;21.118;2023-04-25T01:57:27;99022.70;;;12.99;81.02
33795;BME280;51430;52.242;21.118;2023-04-25T01:59:58;99021.15;;;13.01;83.74
33795;BME280;51430;52.242;21.118;2023-04-25T02:02:25;99022.66;;;13.01;85.91
33795;BME280;51430;52.242;21.118;2023-04-25T02:04:52;99022.83;;;13.05;87.73
33795;BME280;51430;52.242;21.118;2023-04-25T02:07:20;99019.21;;;13.06;89.02
33795;BME280;51430;52.242;21.118;2023-04-25T02:09:46;99013.25;;;13.11;89.51
33795;BME280;51430;52.242;21.118;2023-04-25T02:12:13;99012.83;;;13.13;89.61
33795;BME280;51430;52.242;21.118;2023-04-25T02:14:40;99012.80;;;13.18;89.76
33795;BME280;51430;52.242;21.118;2023-04-25T02:17:07;99007.73;;;13.18;89.64
33795;BME280;51430;52.242;21.118;2023-04-25T02:19:33;99009.34;;;13.16;89.86
33795;BME280;51430;52.242;21.118;2023-04-25T02:22:00;99007.73;;;13.16;90.02
33795;BME280;51430;52.242;21.118;2023-04-25T02:24:26;99006.75;;;13.09;90.57
33795;BME280;51430;52.242;21.118;2023-04-25T02:26:54;99006.19;;;13.06;90.83
33795;BME280;51430;52.242;21.118;2023-04-25T02:29:21;99001.50;;;13.06;90.88
33795;BME280;51430;52.242;21.118;2023-04-25T02:31:48;98993.23;;;13.10;90.78
33795;BME280;51430;52.242;21.118;2023-04-25T02:34:14;98992.95;;;13.07;90.77
33795;BME280;51430;52.242;21.118;2023-04-25T02:36:41;98985.14;;;13.10;90.59
33795;BME280;51430;52.242;21.118;2023-04-25T02:39:07;98989.82;;;13.14;90.57
33795;BME280;51430;52.242;21.118;2023-04-25T02:41:34;98992.67;;;13.15;90.45
33795;BME280;51430;52.242;21.118;2023-04-25T02:44:00;98994.38;;;13.17;90.12
33795;BME280;51430;52.242;21.118;2023-04-25T02:46:26;98997.44;;;13.11;90.30
33795;BME280;51430;52.242;21.118;2023-04-25T02:49:05;98995.90;;;13.03;90.80
33795;BME280;51430;52.242;21.118;2023-04-25T02:51:32;99001.04;;;12.97;91.08
33795;BME280;51430;52.242;21.118;2023-04-25T02:53:59;98995.66;;;12.94;91.30
33795;BME280;51430;52.242;21.118;2023-04-25T02:56:25;98996.88;;;12.92;91.37
33795;BME280;51430;52.242;21.118;2023-04-25T02:58:53;98996.25;;;12.91;91.26
33795;BME280;51430;52.242;21.118;2023-04-25T03:01:19;98994.67;;;12.90;91.46
33795;BME280;51430;52.242;21.118;2023-04-25T03:03:46;98996.38;;;12.84;91.67
33795;BME280;51430;52.242;21.118;2023-04-25T03:06:15;98994.39;;;12.81;92.11
33795;BME280;51430;52.242;21.118;2023-04-25T03:08:42;98994.90;;;12.76;91.94
33795;BME280;51430;52.242;21.118;2023-04-25T03:11:09;98992.35;;;12.81;91.91
33795;BME280;51430;52.242;21.118;2023-04-25T03:13:36;98990.84;;;12.82;91.75
33795;BME280;51430;52.242;21.118;2023-04-25T03:16:03;98995.14;;;12.82;91.46
33795;BME280;51430;52.242;21.118;2023-04-25T03:18:29;98996.08;;;12.83;91.45
33795;BME280;51430;52.242;21.118;2023-04-25T03:20:57;98999.08;;;12.78;91.39
33795;BME280;51430;52.242;21.118;2023-04-25T03:23:23;99000.06;;;12.81;91.46
33795;BME280;51430;52.242;21.118;2023-04-25T03:25:49;99001.83;;;12.74;91.50
33795;BME280;51430;52.242;21.118;2023-04-25T03:28:16;98999.79;;;12.73;91.75
33795;BME280;51430;52.242;21.118;2023-04-25T03:30:42;99005.07;;;12.78;91.61
33795;BME280;51430;52.242;21.118;2023-04-25T03:33:09;99000.64;;;12.88;91.17
33795;BME280;51430;52.242;21.118;2023-04-25T03:35:35;98999.52;;;12.95;90.63
33795;BME280;51430;52.242;21.118;2023-04-25T03:38:02;99002.80;;;13.01;90.54
33795;BME280;51430;52.242;21.118;2023-04-25T03:40:28;99006.20;;;12.96;90.19
33795;BME280;51430;52.242;21.118;2023-04-25T03:42:54;99009.17;;;13.00;90.18
33795;BME280;51430;52.242;21.118;2023-04-25T03:45:21;99010.80;;;13.04;89.81
33795;BME280;51430;52.242;21.118;2023-04-25T03:47:48;99015.98;;;13.03;89.85
33795;BME280;51430;52.242;21.118;2023-04-25T03:50:14;99021.59;;;13.08;89.79
33795;BME280;51430;52.242;21.118;2023-04-25T03:59:52;99027.30;;;13.18;89.27
33795;BME280;51430;52.242;21.118;2023-04-25T04:02:20;99028.50;;;13.12;89.42
33795;BME280;51430;52.242;21.118;2023-04-25T04:04:48;99026.32;;;13.18;89.16
33795;BME280;51430;52.242;21.118;2023-04-25T04:07:16;99031.92;;;13.14;89.08
33795;BME280;51430;52.242;21.118;2023-04-25T04:09:44;99035.30;;;13.23;89.02
33795;BME280;51430;52.242;21.118;2023-04-25T04:12:12;99037.79;;;13.31;88.72
33795;BME280;51430;52.242;21.118;2023-04-25T04:14:40;99039.36;;;13.41;88.26
33795;BME280;51430;52.242;21.118;2023-04-25T04:17:07;99039.70;;;13.47;87.72
33795;BME280;51430;52.242;21.118;2023-04-25T04:19:35;99039.30;;;13.39;87.36
33795;BME280;51430;52.242;21.118;2023-04-25T04:22:03;99040.33;;;13.37;87.65
33795;BME280;51430;52.242;21.118;2023-04-25T04:24:31;99041.35;;;13.32;87.47
33795;BME280;51430;52.242;21.118;2023-04-25T04:27:00;99039.12;;;13.38;87.57
33795;BME280;51430;52.242;21.118;2023-04-25T04:29:27;99043.06;;;13.48;87.11
33795;BME280;51430;52.242;21.118;2023-04-25T04:31:55;99044.80;;;13.48;86.88
33795;BME280;51430;52.242;21.118;2023-04-25T04:34:23;99042.98;;;13.43;86.79
33795;BME280;51430;52.242;21.118;2023-04-25T04:36:52;99045.92;;;13.43;86.97
33795;BME280;51430;52.242;21.118;2023-04-25T04:39:20;99042.61;;;13.45;86.64
33795;BME280;51430;52.242;21.118;2023-04-25T04:41:48;99041.27;;;13.33;87.15
33795;BME280;51430;52.242;21.118;2023-04-25T04:44:16;99044.36;;;13.40;86.80
33795;BME280;51430;52.242;21.118;2023-04-25T04:46:44;99046.91;;;13.44;86.64
33795;BME280;51430;52.242;21.118;2023-04-25T04:49:12;99047.73;;;13.47;86.38
33795;BME280;51430;52.242;21.118;2023-04-25T04:51:41;99049.28;;;13.45;86.04
33795;BME280;51430;52.242;21.118;2023-04-25T04:54:11;99051.26;;;13.44;86.54
33795;BME280;51430;52.242;21.118;2023-04-25T04:56:39;99054.67;;;13.60;86.00
33795;BME280;51430;52.242;21.118;2023-04-25T04:59:08;99052.45;;;13.76;85.45
33795;BME280;51430;52.242;21.118;2023-04-25T05:01:36;99052.09;;;13.92;84.77
33795;BME280;51430;52.242;21.118;2023-04-25T05:04:04;99057.92;;;13.98;84.34
33795;BME280;51430;52.242;21.118;2023-04-25T05:06:34;99057.52;;;14.05;83.92
33795;BME280;51430;52.242;21.118;2023-04-25T05:09:02;99062.09;;;14.00;83.82
33795;BME280;51430;52.242;21.118;2023-04-25T05:11:30;99061.36;;;13.92;83.47
33795;BME280;51430;52.242;21.118;2023-04-25T05:13:58;99062.46;;;13.96;83.45
33795;BME280;51430;52.242;21.118;2023-04-25T05:16:26;99062.77;;;13.94;83.29
33795;BME280;51430;52.242;21.118;2023-04-25T05:18:53;99063.17;;;14.01;83.12
33795;BME280;51430;52.242;21.118;2023-04-25T05:21:21;99059.19;;;14.04;82.86
33795;BME280;51430;52.242;21.118;2023-04-25T05:23:50;99058.53;;;14.03;82.74
33795;BME280;51430;52.242;21.118;2023-04-25T05:26:18;99058.08;;;13.98;83.13
33795;BME280;51430;52.242;21.118;2023-04-25T05:28:46;99065.17;;;13.99;83.08
33795;BME280;51430;52.242;21.118;2023-04-25T05:31:14;99066.79;;;13.99;82.94
33795;BME280;51430;52.242;21.118;2023-04-25T05:33:41;99067.32;;;13.97;82.88
33795;BME280;51430;52.242;21.118;2023-04-25T05:36:09;99070.39;;;13.93;83.00
33795;BME280;51430;52.242;21.118;2023-04-25T05:38:37;99068.36;;;13.88;83.31
33795;BME280;51430;52.242;21.118;2023-04-25T05:41:05;99070.42;;;13.72;83.69
33795;BME280;51430;52.242;21.118;2023-04-25T05:43:32;99072.63;;;13.64;84.34
33795;BME280;51430;52.242;21.118;2023-04-25T05:46:00;99070.24;;;13.61;84.58
33795;BME280;51430;52.242;21.118;2023-04-25T05:48:28;99072.54;;;13.49;85.08
33795;BME280;51430;52.242;21.118;2023-04-25T05:50:56;99070.26;;;13.46;85.60
33795;BME280;51430;52.242;21.118;2023-04-25T05:53:24;99067.55;;;13.57;85.91
33795;BME280;51430;52.242;21.118;2023-04-25T05:55:55;99065.42;;;13.79;85.41
33795;BME280;51430;52.242;21.118;2023-04-25T05:58:22;99069.40;;;13.92;84.88
33795;BME280;51430;52.242;21.118;2023-04-25T06:00:51;99066.25;;;13.91;84.98
33795;BME280;51430;52.242;21.118;2023-04-25T06:03:19;99070.69;;;13.97;85.41
33795;BME280;51430;52.242;21.118;2023-04-25T06:05:48;99071.73;;;14.08;84.84
33795;BME280;51430;52.242;21.118;2023-04-25T06:08:16;99071.85;;;14.19;83.95
33795;BME280;51430;52.242;21.118;2023-04-25T06:10:43;99072.60;;;14.20;83.20
33795;BME280;51430;52.242;21.118;2023-04-25T06:13:11;99078.33;;;14.11;83.31
33795;BME280;51430;52.242;21.118;2023-04-25T06:15:39;99079.46;;;14.13;83.46
33795;BME280;51430;52.242;21.118;2023-04-25T06:18:07;99082.55;;;14.16;83.51
33795;BME280;51430;52.242;21.118;2023-04-25T06:20:35;99083.56;;;14.07;83.81
33795;BME280;51430;52.242;21.118;2023-04-25T06:23:02;99082.30;;;13.95;83.50
33795;BME280;51430;52.242;21.118;2023-04-25T06:25:30;99084.52;;;13.90;83.85
33795;BME280;51430;52.242;21.118;2023-04-25T06:27:58;99090.86;;;13.90;83.16
33795;BME280;51430;52.242;21.118;2023-04-25T06:30:26;99093.95;;;13.91;83.17
33795;BME280;51430;52.242;21.118;2023-04-25T06:32:54;99098.90;;;13.88;83.21
33795;BME280;51430;52.242;21.118;2023-04-25T06:35:22;99105.95;;;13.80;83.61
33795;BME280;51430;52.242;21.118;2023-04-25T06:37:50;99113.23;;;13.63;83.42
33795;BME280;51430;52.242;21.118;2023-04-25T06:40:18;99119.39;;;13.50;84.59
33795;BME280;51430;52.242;21.118;2023-04-25T06:42:46;99128.10;;;13.18;86.58
33795;BME280;51430;52.242;21.118;2023-04-25T06:45:15;99131.07;;;12.64;89.34
33795;BME280;51430;52.242;21.118;2023-04-25T06:47:42;99137.61;;;12.32;92.01
33795;BME280;51430;52.242;21.118;2023-04-25T06:50:10;99134.09;;;12.23;93.70
33795;BME280;51430;52.242;21.118;2023-04-25T06:52:38;99129.38;;;12.01;93.99
33795;BME280;51430;52.242;21.118;2023-04-25T06:55:06;99109.33;;;12.02;96.04
33795;BME280;51430;52.242;21.118;2023-04-25T06:57:34;99093.89;;;12.17;97.41
33795;BME280;51430;52.242;21.118;2023-04-25T07:00:03;99092.35;;;12.38;98.28
33795;BME280;51430;52.242;21.118;2023-04-25T07:02:33;99104.05;;;12.56;98.18
33795;BME280;51430;52.242;21.118;2023-04-25T07:05:02;99108.84;;;12.64;98.20
33795;BME280;51430;52.242;21.118;2023-04-25T07:07:31;99108.70;;;12.79;98.70
33795;BME280;51430;52.242;21.118;2023-04-25T07:09:59;99111.27;;;12.77;99.03
33795;BME280;51430;52.242;21.118;2023-04-25T07:12:27;99111.81;;;12.68;98.97
33795;BME280;51430;52.242;21.118;2023-04-25T07:14:54;99109.59;;;12.54;99.13
33795;BME280;51430;52.242;21.118;2023-04-25T07:17:22;99113.85;;;12.63;99.78
33795;BME280;51430;52.242;21.118;2023-04-25T07:19:56;99113.16;;;12.43;97.66
33795;BME280;51430;52.242;21.118;2023-04-25T07:22:24;99114.02;;;12.36;98.46
33795;BME280;51430;52.242;21.118;2023-04-25T07:24:53;99112.39;;;12.49;99.16
33795;BME280;51430;52.242;21.118;2023-04-25T07:27:21;99113.73;;;12.57;98.90
33795;BME280;51430;52.242;21.118;2023-04-25T07:29:49;99111.39;;;12.70;98.97
33795;BME280;51430;52.242;21.118;2023-04-25T07:32:18;99109.67;;;12.51;96.82
33795;BME280;51430;52.242;21.118;2023-04-25T07:34:45;99111.66;;;12.47;97.09
33795;BME280;51430;52.242;21.118;2023-04-25T07:37:14;99112.42;;;12.60;97.03
33795;BME280;51430;52.242;21.118;2023-04-25T07:39:42;99116.67;;;12.54;94.92
33795;BME280;51430;52.242;21.118;2023-04-25T07:42:10;99119.70;;;12.49;94.61
33795;BME280;51430;52.242;21.118;2023-04-25T07:44:38;99119.23;;;12.47;94.19
33795;BME280;51430;52.242;21.118;2023-04-25T07:47:08;99125.39;;;12.35;93.10
33795;BME280;51430;52.242;21.118;2023-04-25T07:49:36;99121.08;;;12.41;93.26
33795;BME280;51430;52.242;21.118;2023-04-25T07:52:05;99127.85;;;12.64;94.01
33795;BME280;51430;52.242;21.118;2023-04-25T07:54:36;99121.76;;;12.82;93.52
33795;BME280;51430;52.242;21.118;2023-04-25T07:57:03;99126.20;;;13.10;93.50
33795;BME280;51430;52.242;21.118;2023-04-25T07:59:33;99130.55;;;13.34;93.32
33795;BME280;51430;52.242;21.118;2023-04-25T08:02:01;99130.80;;;13.55;93.37
33795;BME280;51430;52.242;21.118;2023-04-25T08:04:30;99131.80;;;13.63;91.25
33795;BME280;51430;52.242;21.118;2023-04-25T08:06:58;99135.08;;;13.77;90.71
33795;BME280;51430;52.242;21.118;2023-04-25T08:09:26;99138.46;;;14.05;91.15
33795;BME280;51430;52.242;21.118;2023-04-25T08:11:54;99138.17;;;14.30;89.28
33795;BME280;51430;52.242;21.118;2023-04-25T08:14:22;99139.69;;;14.41;86.55
33795;BME280;51430;52.242;21.118;2023-04-25T08:16:49;99140.89;;;14.35;85.28
33795;BME280;51430;52.242;21.118;2023-04-25T08:19:17;99141.80;;;14.32;83.90
33795;BME280;51430;52.242;21.118;2023-04-25T08:21:45;99148.77;;;14.19;84.27
33795;BME280;51430;52.242;21.118;2023-04-25T08:24:13;99152.41;;;14.02;85.03
33795;BME280;51430;52.242;21.118;2023-04-25T08:26:40;99151.33;;;13.91;84.60
33795;BME280;51430;52.242;21.118;2023-04-25T08:29:08;99149.99;;;13.71;84.26
33795;BME280;51430;52.242;21.118;2023-04-25T08:31:36;99148.88;;;13.62;85.48
33795;BME280;51430;52.242;21.118;2023-04-25T08:34:04;99152.02;;;13.67;86.33
33795;BME280;51430;52.242;21.118;2023-04-25T08:36:32;99152.13;;;13.70;86.67
33795;BME280;51430;52.242;21.118;2023-04-25T08:39:06;99156.04;;;13.80;86.75
33795;BME280;51430;52.242;21.118;2023-04-25T08:41:37;99154.00;;;13.89;86.04
33795;BME280;51430;52.242;21.118;2023-04-25T08:44:05;99160.45;;;13.83;84.03
33795;BME280;51430;52.242;21.118;2023-04-25T08:46:33;99165.04;;;13.86;83.45
33795;BME280;51430;52.242;21.118;2023-04-25T08:49:02;99170.06;;;13.95;83.71
33795;BME280;51430;52.242;21.118;2023-04-25T08:51:32;99170.08;;;13.71;81.57
33795;BME280;51430;52.242;21.118;2023-04-25T08:54:10;99170.77;;;13.74;83.74
33795;BME280;51430;52.242;21.118;2023-04-25T08:57:00;99177.58;;;13.66;83.65
33795;BME280;51430;52.242;21.118;2023-04-25T08:59:32;99181.73;;;13.65;84.79
33795;BME280;51430;52.242;21.118;2023-04-25T09:02:00;99184.11;;;13.60;83.48
33795;BME280;51430;52.242;21.118;2023-04-25T09:04:31;99186.60;;;13.47;82.09
33795;BME280;51430;52.242;21.118;2023-04-25T09:06:59;99186.92;;;13.28;81.13
33795;BME280;51430;52.242;21.118;2023-04-25T09:09:27;99188.91;;;13.09;81.28
33795;BME280;51430;52.242;21.118;2023-04-25T09:11:54;99189.12;;;13.04;81.63
33795;BME280;51430;52.242;21.118;2023-04-25T09:14:23;99191.27;;;12.93;81.61
33795;BME280;51430;52.242;21.118;2023-04-25T09:19:31;99195.08;;;12.65;83.16
33795;BME280;51430;52.242;21.118;2023-04-25T09:22:04;99196.94;;;12.63;84.43
33795;BME280;51430;52.242;21.118;2023-04-25T09:24:34;99201.51;;;12.61;85.00
33795;BME280;51430;52.242;21.118;2023-04-25T09:27:17;99203.77;;;12.49;84.78
33795;BME280;51430;52.242;21.118;2023-04-25T09:29:45;99202.89;;;12.49;85.76
33795;BME280;51430;52.242;21.118;2023-04-25T09:32:20;99206.08;;;12.50;86.23
33795;BME280;51430;52.242;21.118;2023-04-25T09:37:20;99215.16;;;12.47;88.69
33795;BME280;51430;52.242;21.118;2023-04-25T09:39:58;99218.61;;;12.53;89.35
33795;BME280;51430;52.242;21.118;2023-04-25T09:42:28;99227.21;;;12.45;87.67
33795;BME280;51430;52.242;21.118;2023-04-25T09:45:00;99230.95;;;12.19;87.00
33795;BME280;51430;52.242;21.118;2023-04-25T09:47:37;99229.77;;;11.98;88.63
33795;BME280;51430;52.242;21.118;2023-04-25T09:50:24;99231.77;;;11.85;89.60
33795;BME280;51430;52.242;21.118;2023-04-25T09:53:05;99228.05;;;11.64;90.23
33795;BME280;51430;52.242;21.118;2023-04-25T09:55:34;99229.35;;;11.51;90.99
33795;BME280;51430;52.242;21.118;2023-04-25T09:58:05;99232.47;;;11.51;92.19
33795;BME280;51430;52.242;21.118;2023-04-25T10:00:37;99228.41;;;11.55;92.60
33795;BME280;51430;52.242;21.118;2023-04-25T10:03:05;99231.77;;;11.53;93.11
33795;BME280;51430;52.242;21.118;2023-04-25T10:05:34;99232.77;;;11.43;92.87
33795;BME280;51430;52.242;21.118;2023-04-25T10:08:03;99230.71;;;11.34;93.54
33795;BME280;51430;52.242;21.118;2023-04-25T10:10:32;99237.49;;;11.48;94.67
33795;BME280;51430;52.242;21.118;2023-04-25T10:13:04;99233.25;;;11.45;94.21
33795;BME280;51430;52.242;21.118;2023-04-25T10:15:35;99232.89;;;11.45;93.60
33795;BME280;51430;52.242;21.118;2023-04-25T10:18:07;99231.23;;;11.49;93.41
33795;BME280;51430;52.242;21.118;2023-04-25T10:20:35;99232.36;;;11.58;94.02
33795;BME280;51430;52.242;21.118;2023-04-25T10:23:16;99229.07;;;11.64;93.46
33795;BME280;51430;52.242;21.118;2023-04-25T10:25:45;99236.10;;;11.62;92.28
33795;BME280;51430;52.242;21.118;2023-04-25T10:28:14;99240.91;;;11.52;91.30
33795;BME280;51430;52.242;21.118;2023-04-25T10:30:58;99239.53;;;11.36;90.83
33795;BME280;51430;52.242;21.118;2023-04-25T10:33:37;99239.97;;;11.25;91.61
33795;BME280;51430;52.242;21.118;2023-04-25T10:36:12;99245.61;;;11.40;91.44
33795;BME280;51430;52.242;21.118;2023-04-25T10:38:44;99242.70;;;11.48;91.44
33795;BME280;51430;52.242;21.118;2023-04-25T10:41:13;99243.54;;;11.52;90.94
33795;BME280;51430;52.242;21.118;2023-04-25T10:43:43;99242.18;;;11.55;90.44
33795;BME280;51430;52.242;21.118;2023-04-25T10:46:19;99240.80;;;11.57;90.19
33795;BME280;51430;52.242;21.118;2023-04-25T10:48:52;99243.71;;;11.57;90.35
33795;BME280;51430;52.242;21.118;2023-04-25T10:56:26;99241.98;;;12.09;90.22
33795;BME280;51430;52.242;21.118;2023-04-25T10:59:11;99246.05;;;12.05;89.29
33795;BME280;51430;52.242;21.118;2023-04-25T11:01:41;99244.95;;;12.14;90.58
33795;BME280;51430;52.242;21.118;2023-04-25T11:04:24;99245.27;;;12.26;91.25
33795;BME280;51430;52.242;21.118;2023-04-25T11:07:10;99247.15;;;12.28;89.70
33795;BME280;51430;52.242;21.118;2023-04-25T11:09:41;99250.45;;;12.30;90.00
33795;BME280;51430;52.242;21.118;2023-04-25T11:12:09;99249.66;;;12.35;88.81
33795;BME280;51430;52.242;21.118;2023-04-25T11:14:39;99250.10;;;12.27;87.28
33795;BME280;51430;52.242;21.118;2023-04-25T11:17:12;99254.41;;;12.03;86.73
33795;BME280;51430;52.242;21.118;2023-04-25T11:19:39;99249.58;;;12.23;87.22
33795;BME280;51430;52.242;21.118;2023-04-25T11:22:09;99246.70;;;12.33;86.43
33795;BME280;51430;52.242;21.118;2023-04-25T11:24:38;99248.98;;;12.41;85.62
33795;BME280;51430;52.242;21.118;2023-04-25T11:27:05;99245.55;;;12.56;84.81
33795;BME280;51430;52.242;21.118;2023-04-25T11:29:34;99247.20;;;12.54;83.76
33795;BME280;51430;52.242;21.118;2023-04-25T11:32:02;99247.49;;;12.54;83.92
33795;BME280;51430;52.242;21.118;2023-04-25T11:34:32;99252.26;;;12.65;85.24
33795;BME280;51430;52.242;21.118;2023-04-25T11:37:05;99250.03;;;12.72;85.36
33795;BME280;51430;52.242;21.118;2023-04-25T11:39:34;99252.19;;;12.76;83.50
33795;BME280;51430;52.242;21.118;2023-04-25T11:42:03;99248.42;;;12.74;82.09
33795;BME280;51430;52.242;21.118;2023-04-25T11:44:35;99247.15;;;12.73;81.07
33795;BME280;51430;52.242;21.118;2023-04-25T11:47:02;99246.10;;;12.74;81.05
33795;BME280;51430;52.242;21.118;2023-04-25T11:49:31;99248.98;;;12.73;79.78
33795;BME280;51430;52.242;21.118;2023-04-25T11:51:59;99251.85;;;12.78;80.14
33795;BME280;51430;52.242;21.118;2023-04-25T11:54:27;99247.71;;;12.81;81.57
33795;BME280;51430;52.242;21.118;2023-04-25T11:56:55;99248.80;;;12.77;80.71
33795;BME280;51430;52.242;21.118;2023-04-25T11:59:24;99246.85;;;12.72;80.02
33795;BME280;51430;52.242;21.118;2023-04-25T12:01:53;99245.63;;;12.58;79.32
33795;BME280;51430;52.242;21.118;2023-04-25T12:04:23;99246.00;;;12.62;79.83
33795;BME280;51430;52.242;21.118;2023-04-25T12:06:53;99244.83;;;12.69;80.66
33795;BME280;51430;52.242;21.118;2023-04-25T12:09:30;99244.62;;;12.61;78.57
33795;BME280;51430;52.242;21.118;2023-04-25T12:12:00;99243.79;;;12.59;80.33
33795;BME280;51430;52.242;21.118;2023-04-25T12:14:33;99242.74;;;12.63;80.34
33795;BME280;51430;52.242;21.118;2023-04-25T12:17:03;99246.52;;;12.74;80.13
33795;BME280;51430;52.242;21.118;2023-04-25T12:19:34;99247.06;;;12.70;79.42
33795;BME280;51430;52.242;21.118;2023-04-25T12:22:03;99245.09;;;12.74;78.77
33795;BME280;51430;52.242;21.118;2023-04-25T12:24:45;99244.12;;;12.83;79.93
33795;BME280;51430;52.242;21.118;2023-04-25T12:27:15;99244.37;;;12.91;77.96
33795;BME280;51430;52.242;21.118;2023-04-25T12:29:51;99244.00;;;12.88;77.34
33795;BME280;51430;52.242;21.118;2023-04-25T12:32:20;99243.73;;;12.77;76.27
33795;BME280;51430;52.242;21.118;2023-04-25T12:34:50;99242.73;;;12.64;75.73
33795;BME280;51430;52.242;21.118;2023-04-25T12:37:17;99243.26;;;12.68;76.45
33795;BME280;51430;52.242;21.118;2023-04-25T12:39:45;99242.06;;;12.84;77.00
33795;BME280;51430;52.242;21.118;2023-04-25T12:42:13;99239.66;;;12.87;75.79
33795;BME280;51430;52.242;21.118;2023-04-25T12:44:41;99240.54;;;12.99;77.08
33795;BME280;51430;52.242;21.118;2023-04-25T12:47:09;99238.59;;;13.02;76.25
33795;BME280;51430;52.242;21.118;2023-04-25T12:49:37;99239.44;;;12.99;74.71
33795;BME280;51430;52.242;21.118;2023-04-25T12:52:05;99236.47;;;13.05;73.99
33795;BME280;51430;52.242;21.118;2023-04-25T12:54:33;99236.98;;;13.01;73.59
33795;BME280;51430;52.242;21.118;2023-04-25T12:57:00;99229.98;;;12.99;74.25
33795;BME280;51430;52.242;21.118;2023-04-25T12:59:30;99228.20;;;13.15;74.68
33795;BME280;51430;52.242;21.118;2023-04-25T13:01:58;99229.84;;;13.24;73.84
33795;BME280;51430;52.242;21.118;2023-04-25T13:04:27;99229.88;;;13.16;73.00
33795;BME280;51430;52.242;21.118;2023-04-25T13:06:55;99225.56;;;13.20;72.28
33795;BME280;51430;52.242;21.118;2023-04-25T13:09:23;99223.27;;;13.30;73.18
33795;BME280;51430;52.242;21.118;2023-04-25T13:11:51;99224.74;;;13.31;71.44
33795;BME280;51430;52.242;21.118;2023-04-25T13:14:22;99223.20;;;13.34;70.34
33795;BME280;51430;52.242;21.118;2023-04-25T13:16:50;99216.45;;;13.35;70.88